Terminal Aerodrome Forecast
Issued by NWS

Home | Current Version | Previous Version | Text Only | Print | Product List | Glossary On
Versions: 1 2 3 4 5 6 7 8 9 10 11 12 13 14 15 16 17 18 19 20 21 22 23 24 25 26 27 28
000
FTUS41 KCAR 010523
TAFBHB
TAF
KBHB 010523Z 0106/0206 18004KT P6SM BKN090
     FM010800 18004KT 3SM BR BKN090
     FM011800 15009KT 6SM -SHRA OVC025
     FM012200 14008KT P6SM OVC005
     FM020000 13007KT P6SM OVC003 WS020/20035KT
     FM020400 18006KT P6SM BKN003
      AMD LTD TO CLD VIS AND WIND=

USA.gov is the U.S. government's official web portal to all federal, state and local government web resources and services.